Time;durP1;ratioP1;P1;durP2;ratioP2;P2;SDS_P1;SDS_P2;PMS_P1;PMS_P2;Temp;Humidity;BMP_temperature;BMP_pressure;BME280_temperature;BME280_humidity;BME280_pressure;Samples;Min_cycle;Max_cycle;Signal;HPM_P1;HPM_P2
2021/12/04 00:00:52;;;;;;;4.18;3.88;;;;;;;;;;5000918;28;20264;-49
2021/12/04 00:03:18;;;;;;;3.78;3.47;;;;;;;;;;5021241;28;20187;-49
2021/12/04 00:06:07;;;;;;;3.58;3.28;;;;;;;;;;5022690;28;20176;-50
2021/12/04 00:08:36;;;;;;;3.75;3.45;;;;;;;;;;5023733;28;20179;-50
2021/12/04 00:11:03;;;;;;;4.00;3.70;;;;;;;;;;5040181;28;20255;-50
2021/12/04 00:13:29;;;;;;;3.63;3.33;;;;;;;;;;5039186;28;20620;-50
2021/12/04 00:15:55;;;;;;;3.53;3.27;;;;;;;;;;5040235;28;20225;-50
2021/12/04 00:18:21;;;;;;;3.60;3.30;;;;;;;;;;5038477;28;20406;-49
2021/12/04 00:20:47;;;;;;;4.50;3.30;;;;;;;;;;5040091;28;20480;-49
2021/12/04 00:23:13;;;;;;;3.63;3.38;;;;;;;;;;5040376;28;20421;-51
2021/12/04 00:25:39;;;;;;;3.80;3.50;;;;;;;;;;5039978;28;20745;-51
2021/12/04 00:28:05;;;;;;;4.07;3.50;;;;;;;;;;5039767;28;20167;-50
2021/12/04 00:30:31;;;;;;;4.28;3.80;;;;;;;;;;5039456;28;20209;-50
2021/12/04 00:33:03;;;;;;;3.90;3.60;;;;;;;;;;5039484;28;20577;-50
2021/12/04 00:51:32;;;;;;;3.90;3.40;;;;;;;;;;5037141;28;20207;-51
2021/12/04 00:53:58;;;;;;;3.83;3.63;;;;;;;;;;5037262;28;20163;-50
2021/12/04 00:56:24;;;;;;;5.23;3.33;;;;;;;;;;5038336;28;20387;-49
2021/12/04 00:58:50;;;;;;;3.00;2.80;;;;;;;;;;5038759;28;20898;-50
2021/12/04 01:01:17;;;;;;;3.80;3.47;;;;;;;;;;5038594;28;20418;-52
2021/12/04 01:03:43;;;;;;;2.60;2.50;;;;;;;;;;5039235;28;20168;-50
2021/12/04 01:06:09;;;;;;;4.33;4.03;;;;;;;;;;5038043;28;20179;-53
2021/12/04 01:08:35;;;;;;;3.90;3.60;;;;;;;;;;5038376;28;20395;-50
2021/12/04 01:11:04;;;;;;;4.30;3.93;;;;;;;;;;5036376;28;20210;-50
2021/12/04 01:13:31;;;;;;;3.80;3.50;;;;;;;;;;5038061;28;20453;-50
2021/12/04 01:15:57;;;;;;;4.88;4.45;;;;;;;;;;5038214;28;20251;-49
2021/12/04 01:18:23;;;;;;;5.68;5.18;;;;;;;;;;5038162;28;20168;-49
2021/12/04 01:20:49;;;;;;;4.40;4.00;;;;;;;;;;5037421;28;20188;-50
2021/12/04 01:23:16;;;;;;;4.90;4.40;;;;;;;;;;5037798;28;20174;-50
2021/12/04 01:25:42;;;;;;;4.68;4.28;;;;;;;;;;5037665;28;20410;-50
2021/12/04 01:28:08;;;;;;;4.97;4.47;;;;;;;;;;5038125;28;20167;-50
2021/12/04 01:30:34;;;;;;;6.40;4.25;;;;;;;;;;5038024;28;20199;-50
2021/12/04 01:33:00;;;;;;;4.97;4.47;;;;;;;;;;5038534;28;20171;-50
2021/12/04 01:35:26;;;;;;;4.68;4.30;;;;;;;;;;5038194;28;20401;-51
2021/12/04 01:37:53;;;;;;;4.97;3.97;;;;;;;;;;5037635;28;20199;-50
2021/12/04 01:40:19;;;;;;;4.45;4.10;;;;;;;;;;5037514;28;20195;-52
2021/12/04 01:42:45;;;;;;;3.80;3.50;;;;;;;;;;5037923;28;20199;-50
2021/12/04 01:45:11;;;;;;;4.47;3.60;;;;;;;;;;5037924;28;20172;-50
2021/12/04 01:47:37;;;;;;;4.95;4.50;;;;;;;;;;5038136;28;20167;-50
2021/12/04 01:50:04;;;;;;;4.95;4.45;;;;;;;;;;5037750;28;20202;-51
2021/12/04 01:52:30;;;;;;;6.45;4.70;;;;;;;;;;5038863;28;20167;-51
2021/12/04 01:54:57;;;;;;;4.45;4.05;;;;;;;;;;5038588;28;20532;-52
2021/12/04 01:57:24;;;;;;;4.50;4.10;;;;;;;;;;5038540;28;20168;-51
2021/12/04 01:59:50;;;;;;;4.72;4.35;;;;;;;;;;5037906;28;20175;-51
2021/12/04 02:02:16;;;;;;;4.33;3.93;;;;;;;;;;5037211;28;20191;-50
2021/12/04 02:04:42;;;;;;;4.85;4.38;;;;;;;;;;5035876;28;20398;-50
2021/12/04 02:07:10;;;;;;;4.50;3.90;;;;;;;;;;5036123;28;20258;-51
2021/12/04 02:09:37;;;;;;;4.65;4.03;;;;;;;;;;5032006;28;20192;-49
2021/12/04 02:12:05;;;;;;;3.85;3.45;;;;;;;;;;5031653;28;20184;-50
2021/12/04 02:14:31;;;;;;;4.30;4.00;;;;;;;;;;5032267;28;20532;-50
2021/12/04 02:16:57;;;;;;;4.10;3.80;;;;;;;;;;5032199;28;20640;-51
2021/12/04 02:19:24;;;;;;;3.70;3.40;;;;;;;;;;5032451;28;20231;-50
2021/12/04 02:21:50;;;;;;;3.80;3.50;;;;;;;;;;5032052;28;20426;-50
2021/12/04 02:24:16;;;;;;;4.25;3.85;;;;;;;;;;5032018;28;20535;-49
2021/12/04 02:26:42;;;;;;;4.53;4.13;;;;;;;;;;5032146;28;20175;-49
2021/12/04 02:29:08;;;;;;;3.97;3.60;;;;;;;;;;5032024;28;20403;-51
2021/12/04 02:31:34;;;;;;;5.10;3.60;;;;;;;;;;5031645;28;20198;-50
2021/12/04 02:34:00;;;;;;;4.22;3.83;;;;;;;;;;5031993;28;20399;-50
2021/12/04 02:36:27;;;;;;;4.03;3.53;;;;;;;;;;5031529;28;20175;-50
2021/12/04 02:38:53;;;;;;;4.20;3.80;;;;;;;;;;5031767;28;20427;-50
2021/12/04 02:41:20;;;;;;;5.32;4.82;;;;;;;;;;5031581;28;20674;-50
2021/12/04 02:43:46;;;;;;;4.35;3.95;;;;;;;;;;5031825;28;20183;-50
2021/12/04 02:46:14;;;;;;;6.05;4.15;;;;;;;;;;5031841;28;20174;-50
2021/12/04 02:48:41;;;;;;;5.10;4.70;;;;;;;;;;5031885;28;20217;-49
2021/12/04 02:51:07;;;;;;;4.50;4.10;;;;;;;;;;5031435;28;20250;-49
2021/12/04 02:53:34;;;;;;;4.17;3.87;;;;;;;;;;5031766;28;20171;-50
2021/12/04 02:56:00;;;;;;;3.60;3.40;;;;;;;;;;5031678;28;20394;-49
2021/12/04 02:58:26;;;;;;;3.78;3.20;;;;;;;;;;5031652;28;20163;-49
2021/12/04 03:00:52;;;;;;;3.47;3.27;;;;;;;;;;5031392;28;20240;-49
2021/12/04 03:03:19;;;;;;;5.38;3.88;;;;;;;;;;5031613;28;20405;-49
2021/12/04 03:05:48;;;;;;;4.47;4.07;;;;;;;;;;5031705;28;20172;-49
2021/12/04 03:08:14;;;;;;;5.97;4.40;;;;;;;;;;5031973;28;20182;-50
2021/12/04 03:10:40;;;;;;;3.87;3.57;;;;;;;;;;5031859;28;20203;-51
2021/12/04 03:13:09;;;;;;;4.20;3.83;;;;;;;;;;5031627;28;20391;-49
2021/12/04 03:15:37;;;;;;;4.22;3.92;;;;;;;;;;5031791;28;20628;-50
2021/12/04 03:18:04;;;;;;;4.35;4.00;;;;;;;;;;5031747;28;20171;-51
2021/12/04 03:20:31;;;;;;;4.90;4.10;;;;;;;;;;5031300;28;20203;-50
2021/12/04 03:23:00;;;;;;;4.50;4.10;;;;;;;;;;5031690;28;20632;-49
2021/12/04 03:25:26;;;;;;;4.53;4.13;;;;;;;;;;5031652;28;20164;-49
2021/12/04 03:27:52;;;;;;;4.10;3.80;;;;;;;;;;5032150;28;20180;-52
2021/12/04 03:41:21;;;;;;;4.43;4.03;;;;;;;;;;5031203;28;20198;-51
2021/12/04 03:43:47;;;;;;;4.10;3.80;;;;;;;;;;5031361;28;20192;-51
2021/12/04 03:46:16;;;;;;;7.20;4.00;;;;;;;;;;5031391;28;20402;-50
2021/12/04 03:51:08;;;;;;;5.00;4.60;;;;;;;;;;5034816;28;20237;-49
2021/12/04 03:53:35;;;;;;;4.63;4.22;;;;;;;;;;5035112;28;20395;-51
2021/12/04 03:56:01;;;;;;;6.80;4.75;;;;;;;;;;5035000;28;20168;-51
2021/12/04 03:58:27;;;;;;;7.75;4.55;;;;;;;;;;5034886;28;20582;-50
2021/12/04 04:00:53;;;;;;;5.53;5.03;;;;;;;;;;5034381;28;20199;-51
2021/12/04 04:03:19;;;;;;;6.40;4.43;;;;;;;;;;5034818;28;20168;-50
2021/12/04 04:05:45;;;;;;;5.22;4.72;;;;;;;;;;5034984;28;20406;-51
2021/12/04 04:08:12;;;;;;;4.30;3.90;;;;;;;;;;5035084;28;20644;-51
2021/12/04 04:10:38;;;;;;;6.68;4.38;;;;;;;;;;5034163;28;20457;-50
2021/12/04 04:13:07;;;;;;;4.20;3.80;;;;;;;;;;5035018;28;20250;-49
2021/12/04 04:15:33;;;;;;;5.38;4.03;;;;;;;;;;5034624;28;20198;-51
2021/12/04 04:17:59;;;;;;;4.70;4.03;;;;;;;;;;5034708;28;20187;-50
2021/12/04 04:20:25;;;;;;;4.30;3.90;;;;;;;;;;5034244;28;20671;-50
2021/12/04 04:22:51;;;;;;;3.73;3.43;;;;;;;;;;5034538;28;20179;-49
2021/12/04 04:25:17;;;;;;;3.93;3.63;;;;;;;;;;5034441;28;20938;-51
2021/12/04 04:27:44;;;;;;;3.80;3.45;;;;;;;;;;5034444;28;20426;-50
2021/12/04 04:30:12;;;;;;;8.02;4.70;;;;;;;;;;5033963;28;20261;-50
2021/12/04 04:32:39;;;;;;;5.45;4.18;;;;;;;;;;5034463;28;20404;-51
2021/12/04 04:35:10;;;;;;;3.85;3.55;;;;;;;;;;5034398;28;20160;-50
2021/12/04 05:02:20;;;;;;;4.20;3.80;;;;;;;;;;5033491;28;20275;-50
2021/12/04 05:10:33;;;;;;;4.82;4.13;;;;;;;;;;5033407;28;20218;-51
2021/12/04 05:13:05;;;;;;;5.53;4.30;;;;;;;;;;5033537;28;20168;-51
2021/12/04 05:18:23;;;;;;;4.10;3.67;;;;;;;;;;5033366;28;20242;-51
2021/12/04 05:21:05;;;;;;;3.90;3.60;;;;;;;;;;5033079;28;20192;-51
2021/12/04 05:23:33;;;;;;;4.15;3.80;;;;;;;;;;5033416;28;20168;-51
2021/12/04 05:25:59;;;;;;;4.07;3.50;;;;;;;;;;5033223;28;20175;-50
2021/12/04 05:28:26;;;;;;;4.40;4.00;;;;;;;;;;5033141;28;20218;-50
2021/12/04 05:30:52;;;;;;;4.82;4.43;;;;;;;;;;5032812;28;20457;-50
2021/12/04 05:33:18;;;;;;;5.95;4.65;;;;;;;;;;5033071;28;20615;-51
2021/12/04 05:35:47;;;;;;;3.80;3.50;;;;;;;;;;5033020;28;20171;-51
2021/12/04 05:38:14;;;;;;;3.85;3.55;;;;;;;;;;5033034;28;20394;-50
2021/12/04 05:40:40;;;;;;;3.70;3.40;;;;;;;;;;5032614;28;20191;-50
2021/12/04 05:43:06;;;;;;;3.30;3.03;;;;;;;;;;5032747;28;20187;-51
2021/12/04 05:45:38;;;;;;;3.93;3.53;;;;;;;;;;5033082;28;20176;-51
2021/12/04 05:53:29;;;;;;;3.88;3.40;;;;;;;;;;5032727;28;20182;-50
2021/12/04 05:55:56;;;;;;;3.40;3.10;;;;;;;;;;5032704;28;20255;-49
2021/12/04 05:58:27;;;;;;;4.50;3.60;;;;;;;;;;5032733;28;20366;-51
2021/12/04 06:00:54;;;;;;;4.00;3.60;;;;;;;;;;5032206;28;20267;-50
2021/12/04 06:03:20;;;;;;;3.65;3.10;;;;;;;;;;5032527;28;20168;-50
2021/12/04 06:05:46;;;;;;;3.10;2.90;;;;;;;;;;5032446;28;20658;-50
2021/12/04 06:08:12;;;;;;;3.83;3.50;;;;;;;;;;5032498;28;20413;-50
2021/12/04 06:10:39;;;;;;;4.40;3.67;;;;;;;;;;5032135;28;20961;-51
2021/12/04 06:13:05;;;;;;;4.38;3.67;;;;;;;;;;5032486;28;20762;-52
2021/12/04 06:15:31;;;;;;;4.10;3.70;;;;;;;;;;5032364;28;20171;-51
2021/12/04 06:17:57;;;;;;;4.17;3.77;;;;;;;;;;5032222;28;20826;-52
2021/12/04 06:23:07;;;;;;;3.85;3.55;;;;;;;;;;5032269;28;20217;-51
2021/12/04 06:25:33;;;;;;;4.50;4.10;;;;;;;;;;5032237;28;20650;-51
2021/12/04 06:27:59;;;;;;;4.13;3.72;;;;;;;;;;5032475;28;20497;-51
2021/12/04 06:30:26;;;;;;;4.77;3.83;;;;;;;;;;5031746;28;20322;-52
2021/12/04 06:32:53;;;;;;;6.50;4.05;;;;;;;;;;5032028;28;20410;-50
2021/12/04 06:35:20;;;;;;;4.65;3.95;;;;;;;;;;5032441;28;20168;-52
2021/12/04 06:37:48;;;;;;;4.38;3.97;;;;;;;;;;5031932;28;20202;-50
2021/12/04 06:40:14;;;;;;;4.80;4.10;;;;;;;;;;5031665;28;20194;-51
2021/12/04 06:42:41;;;;;;;5.22;4.72;;;;;;;;;;5031962;28;20203;-50
2021/12/04 06:45:08;;;;;;;5.50;4.40;;;;;;;;;;5032504;28;20209;-51
2021/12/04 06:47:36;;;;;;;4.25;3.85;;;;;;;;;;5031753;28;20518;-50
2021/12/04 06:50:07;;;;;;;4.40;3.92;;;;;;;;;;5031728;28;20236;-52
2021/12/04 06:52:33;;;;;;;4.95;4.45;;;;;;;;;;5031839;28;20166;-52
2021/12/04 06:55:02;;;;;;;5.10;4.60;;;;;;;;;;5031806;28;20595;-51
2021/12/04 06:57:29;;;;;;;7.60;4.10;;;;;;;;;;5031775;28;20167;-51
2021/12/04 06:59:56;;;;;;;5.32;3.92;;;;;;;;;;5031384;28;20191;-51
2021/12/04 07:02:22;;;;;;;5.22;4.55;;;;;;;;;;5031624;28;20651;-50
2021/12/04 07:04:48;;;;;;;8.55;4.90;;;;;;;;;;5031570;28;20172;-51
2021/12/04 07:07:14;;;;;;;5.77;4.80;;;;;;;;;;5031622;28;20714;-51
2021/12/04 07:09:41;;;;;;;5.47;4.97;;;;;;;;;;5031303;28;20450;-51
2021/12/04 07:12:08;;;;;;;7.72;4.20;;;;;;;;;;5031305;28;20191;-50
2021/12/04 07:14:34;;;;;;;5.82;4.43;;;;;;;;;;5031603;28;20234;-51
2021/12/04 07:17:02;;;;;;;6.07;5.30;;;;;;;;;;5031506;28;20171;-51
2021/12/04 07:19:29;;;;;;;5.97;4.95;;;;;;;;;;5031576;28;20398;-51
2021/12/04 07:21:55;;;;;;;7.47;5.82;;;;;;;;;;5031168;28;20230;-52
2021/12/04 07:24:21;;;;;;;9.15;5.72;;;;;;;;;;5034312;28;20174;-52
2021/12/04 07:26:47;;;;;;;6.43;5.47;;;;;;;;;;5035357;28;20592;-51
2021/12/04 07:29:13;;;;;;;6.53;5.17;;;;;;;;;;5035288;28;20468;-50
2021/12/04 07:31:39;;;;;;;7.97;6.22;;;;;;;;;;5034975;28;20470;-51
2021/12/04 07:34:05;;;;;;;6.72;5.45;;;;;;;;;;5035538;28;20182;-50
2021/12/04 07:36:31;;;;;;;11.02;5.57;;;;;;;;;;5035216;28;20549;-52
2021/12/04 07:38:59;;;;;;;6.50;5.88;;;;;;;;;;5035192;28;20179;-51
2021/12/04 07:41:25;;;;;;;5.95;5.35;;;;;;;;;;5033004;28;20188;-50
2021/12/04 07:43:52;;;;;;;8.93;6.15;;;;;;;;;;5020696;28;20208;-50
2021/12/04 07:46:18;;;;;;;6.97;5.70;;;;;;;;;;5022530;28;20180;-51
2021/12/04 07:48:44;;;;;;;8.65;5.78;;;;;;;;;;5015417;28;20219;-51
2021/12/04 07:51:10;;;;;;;8.90;6.78;;;;;;;;;;5014741;28;20212;-50
2021/12/04 07:53:37;;;;;;;8.27;5.32;;;;;;;;;;5015146;28;20164;-51
2021/12/04 07:56:03;;;;;;;8.68;6.70;;;;;;;;;;5014953;28;20173;-51
2021/12/04 07:58:29;;;;;;;12.27;7.05;;;;;;;;;;4997405;28;20169;-51
2021/12/04 08:00:56;;;;;;;6.35;5.72;;;;;;;;;;5014520;28;20660;-51
2021/12/04 08:03:22;;;;;;;7.30;5.45;;;;;;;;;;5014981;28;20241;-50
2021/12/04 08:05:49;;;;;;;7.93;6.80;;;;;;;;;;5014899;28;20547;-51
2021/12/04 08:08:15;;;;;;;8.98;6.20;;;;;;;;;;5017174;28;20180;-53
2021/12/04 08:10:41;;;;;;;8.77;6.17;;;;;;;;;;5016757;28;20208;-51
2021/12/04 08:13:07;;;;;;;8.13;6.90;;;;;;;;;;5017213;28;20461;-51
2021/12/04 08:15:36;;;;;;;8.98;6.57;;;;;;;;;;5017305;28;20168;-51
2021/12/04 08:18:02;;;;;;;9.02;6.15;;;;;;;;;;5017618;28;20508;-50
2021/12/04 08:20:28;;;;;;;9.00;6.28;;;;;;;;;;5017167;28;20223;-52
2021/12/04 08:22:54;;;;;;;8.43;6.63;;;;;;;;;;5018722;28;20549;-52
2021/12/04 08:25:20;;;;;;;8.03;6.43;;;;;;;;;;5018156;28;20510;-50
2021/12/04 08:27:49;;;;;;;9.77;6.57;;;;;;;;;;5018397;28;20454;-53
2021/12/04 08:30:16;;;;;;;8.50;6.05;;;;;;;;;;5017386;28;20687;-51
2021/12/04 08:32:42;;;;;;;8.05;5.65;;;;;;;;;;5017590;28;20168;-52
2021/12/04 08:35:10;;;;;;;7.90;6.37;;;;;;;;;;5015867;28;20521;-50
2021/12/04 08:37:36;;;;;;;8.13;6.35;;;;;;;;;;5018052;28;20899;-51
2021/12/04 08:40:03;;;;;;;7.53;6.10;;;;;;;;;;5018463;28;20172;-51
2021/12/04 08:42:29;;;;;;;6.65;6.05;;;;;;;;;;5019265;28;20403;-51
2021/12/04 08:44:55;;;;;;;8.07;6.47;;;;;;;;;;5018295;28;20172;-50
2021/12/04 08:47:21;;;;;;;11.45;7.22;;;;;;;;;;5018959;28;20506;-50
2021/12/04 08:49:47;;;;;;;13.10;7.43;;;;;;;;;;5019062;28;20235;-50
2021/12/04 08:52:18;;;;;;;9.18;6.43;;;;;;;;;;5019250;28;20415;-49
2021/12/04 08:54:44;;;;;;;8.05;6.43;;;;;;;;;;5017282;28;20164;-51
2021/12/04 08:57:10;;;;;;;13.73;8.20;;;;;;;;;;5017691;28;20221;-51
2021/12/04 08:59:36;;;;;;;8.23;6.50;;;;;;;;;;5018124;28;20408;-50
2021/12/04 09:02:03;;;;;;;9.83;6.37;;;;;;;;;;5018174;28;20192;-52
2021/12/04 09:04:31;;;;;;;8.80;6.63;;;;;;;;;;5017458;28;20487;-52
2021/12/04 09:06:57;;;;;;;10.27;6.55;;;;;;;;;;5017938;28;20207;-53
2021/12/04 09:09:24;;;;;;;8.70;7.10;;;;;;;;;;5019082;28;20201;-52
2021/12/04 09:11:51;;;;;;;8.32;6.40;;;;;;;;;;5017251;28;20181;-52
2021/12/04 09:14:19;;;;;;;6.97;6.22;;;;;;;;;;5016790;28;20172;-50
2021/12/04 09:16:45;;;;;;;11.60;7.78;;;;;;;;;;5016405;28;20168;-51
2021/12/04 09:19:11;;;;;;;9.05;7.25;;;;;;;;;;5016944;28;20234;-50
2021/12/04 09:21:39;;;;;;;9.90;6.90;;;;;;;;;;5016623;28;20717;-50
2021/12/04 09:24:17;;;;;;;11.68;7.15;;;;;;;;;;5015989;28;20410;-51
2021/12/04 10:12:02;;;;;;;9.32;6.25;;;;;;;;;;5015145;28;20263;-52
2021/12/04 10:22:36;;;;;;;6.83;5.80;;;;;;;;;;4994140;28;20177;-51
2021/12/04 10:33:29;;;;;;;5.87;5.13;;;;;;;;;;4990887;28;20920;-51
2021/12/04 10:35:55;;;;;;;6.50;5.63;;;;;;;;;;4990934;28;20484;-51
2021/12/04 10:38:26;;;;;;;6.17;5.57;;;;;;;;;;4991907;28;20512;-51
2021/12/04 10:40:54;;;;;;;6.60;5.53;;;;;;;;;;4992187;28;20425;-51
2021/12/04 10:43:23;;;;;;;6.53;5.93;;;;;;;;;;4992627;28;20189;-51
2021/12/04 10:45:54;;;;;;;7.40;5.60;;;;;;;;;;4992503;28;20688;-51
2021/12/04 10:48:24;;;;;;;4.97;4.53;;;;;;;;;;4992599;28;20724;-51
2021/12/04 10:50:59;;;;;;;5.45;4.90;;;;;;;;;;4992162;28;20546;-51
2021/12/04 10:53:35;;;;;;;5.38;4.88;;;;;;;;;;4992490;28;20219;-52
2021/12/04 11:04:02;;;;;;;5.18;4.68;;;;;;;;;;4992449;28;20400;-51
2021/12/04 11:36:24;;;;;;;3.80;2.97;;;;;;;;;;4992036;28;20491;-51
2021/12/04 11:41:56;;;;;;;3.60;3.30;;;;;;;;;;4972427;28;20432;-50
2021/12/04 11:44:44;;;;;;;4.20;3.13;;;;;;;;;;4991955;28;20424;-50
2021/12/04 11:47:08;;;;;;;3.57;3.27;;;;;;;;;;4991754;28;20404;-51
2021/12/04 11:49:35;;;;;;;3.85;3.55;;;;;;;;;;4991694;28;20401;-50
2021/12/04 11:52:04;;;;;;;9.93;3.80;;;;;;;;;;4991626;28;20673;-52
2021/12/04 11:54:31;;;;;;;4.80;3.47;;;;;;;;;;4992025;28;20454;-51
2021/12/04 11:56:58;;;;;;;3.90;3.60;;;;;;;;;;4991542;28;20462;-51
2021/12/04 11:59:31;;;;;;;4.23;3.40;;;;;;;;;;4991933;28;20410;-51
2021/12/04 12:01:59;;;;;;;3.70;3.37;;;;;;;;;;4990525;28;20433;-51
2021/12/04 12:04:52;;;;;;;3.10;2.87;;;;;;;;;;4991803;28;20405;-52
2021/12/04 12:07:19;;;;;;;4.03;3.73;;;;;;;;;;4989950;28;20413;-51
2021/12/04 12:09:47;;;;;;;4.10;3.67;;;;;;;;;;4993159;28;20857;-50
2021/12/04 12:12:14;;;;;;;3.53;3.23;;;;;;;;;;4995088;28;20462;-51
2021/12/04 12:14:50;;;;;;;3.22;2.92;;;;;;;;;;4995250;28;20400;-52
2021/12/04 12:17:18;;;;;;;3.60;3.30;;;;;;;;;;4995170;28;20185;-52
2021/12/04 12:19:51;;;;;;;3.90;3.57;;;;;;;;;;4995083;28;20405;-52
2021/12/04 12:22:35;;;;;;;4.47;4.07;;;;;;;;;;4994939;28;20857;-52
2021/12/04 12:25:15;;;;;;;4.30;3.33;;;;;;;;;;4995191;28;20397;-51
2021/12/04 12:33:27;;;;;;;3.50;3.20;;;;;;;;;;4998697;28;20396;-52
2021/12/04 12:36:11;;;;;;;3.83;3.53;;;;;;;;;;5014499;28;20400;-51
2021/12/04 12:38:57;;;;;;;4.30;3.87;;;;;;;;;;5014475;28;20419;-51
2021/12/04 12:41:29;;;;;;;4.97;4.53;;;;;;;;;;5014189;28;20516;-51
2021/12/04 12:44:01;;;;;;;3.77;3.47;;;;;;;;;;5014077;28;20459;-50
2021/12/04 12:46:39;;;;;;;2.77;2.57;;;;;;;;;;5014332;28;20436;-51
2021/12/04 12:49:20;;;;;;;3.60;3.30;;;;;;;;;;5014518;28;20407;-52
2021/12/04 12:51:53;;;;;;;3.07;2.87;;;;;;;;;;5014051;28;20467;-51
2021/12/04 12:54:24;;;;;;;2.93;2.73;;;;;;;;;;5014410;28;20410;-50
2021/12/04 12:56:58;;;;;;;4.30;3.90;;;;;;;;;;5014352;28;20404;-52
2021/12/04 12:59:36;;;;;;;3.23;3.00;;;;;;;;;;5014690;28;20399;-51
2021/12/04 13:13:33;;;;;;;3.57;3.30;;;;;;;;;;5012879;28;20816;-50
2021/12/04 13:16:04;;;;;;;6.20;3.00;;;;;;;;;;5013677;28;20413;-52
2021/12/04 13:18:31;;;;;;;3.50;3.17;;;;;;;;;;5014388;28;20393;-50
2021/12/04 13:21:06;;;;;;;3.47;3.27;;;;;;;;;;5012935;28;20432;-52
2021/12/04 13:23:32;;;;;;;3.77;3.47;;;;;;;;;;5013928;28;20771;-52
2021/12/04 13:26:00;;;;;;;3.20;3.00;;;;;;;;;;5014230;28;20758;-52
2021/12/04 13:28:28;;;;;;;3.20;3.00;;;;;;;;;;5014023;28;20500;-52
2021/12/04 13:30:55;;;;;;;3.50;3.20;;;;;;;;;;5013686;28;20909;-51
2021/12/04 13:33:21;;;;;;;3.00;2.80;;;;;;;;;;5014325;28;20493;-52
2021/12/04 13:35:47;;;;;;;3.37;3.07;;;;;;;;;;5013935;28;20443;-52
2021/12/04 13:38:16;;;;;;;3.40;3.20;;;;;;;;;;5013809;28;20409;-51
2021/12/04 13:40:44;;;;;;;3.90;3.47;;;;;;;;;;5013746;28;20428;-51
2021/12/04 13:43:11;;;;;;;3.60;3.40;;;;;;;;;;5013469;28;20939;-51
2021/12/04 13:45:37;;;;;;;2.90;2.70;;;;;;;;;;5013772;28;20780;-52
2021/12/04 13:48:03;;;;;;;3.50;3.20;;;;;;;;;;5013446;28;20405;-51
2021/12/04 13:53:03;;;;;;;3.33;3.03;;;;;;;;;;5013431;28;20417;-52
2021/12/04 13:55:30;;;;;;;3.53;3.27;;;;;;;;;;5013190;28;20440;-51
2021/12/04 13:57:57;;;;;;;3.93;3.30;;;;;;;;;;5013250;28;20407;-52
2021/12/04 14:00:24;;;;;;;3.27;3.07;;;;;;;;;;5012929;28;20419;-52
2021/12/04 14:02:50;;;;;;;3.00;2.80;;;;;;;;;;5013272;28;20404;-51
2021/12/04 14:05:18;;;;;;;3.30;3.00;;;;;;;;;;5012925;28;20412;-52
2021/12/04 14:07:53;;;;;;;4.00;3.60;;;;;;;;;;5013421;28;20502;-50
2021/12/04 14:10:20;;;;;;;5.30;4.13;;;;;;;;;;5012307;28;20466;-49
2021/12/04 14:12:46;;;;;;;3.33;3.03;;;;;;;;;;5013100;28;20411;-50
2021/12/04 14:15:14;;;;;;;3.70;3.40;;;;;;;;;;5010873;28;20425;-50
2021/12/04 14:17:40;;;;;;;3.83;3.53;;;;;;;;;;5010620;28;20918;-49
2021/12/04 14:20:06;;;;;;;4.10;3.80;;;;;;;;;;5012142;28;20471;-48
2021/12/04 14:22:33;;;;;;;6.17;4.27;;;;;;;;;;5012440;28;20405;-49
2021/12/04 14:25:01;;;;;;;5.97;4.03;;;;;;;;;;5012485;28;20502;-51
2021/12/04 14:27:28;;;;;;;5.70;4.10;;;;;;;;;;5012387;28;20431;-49
2021/12/04 14:29:58;;;;;;;5.80;4.07;;;;;;;;;;5011877;28;20459;-49
2021/12/04 14:32:26;;;;;;;5.20;4.05;;;;;;;;;;5011682;28;20401;-49
2021/12/04 14:34:55;;;;;;;6.73;4.20;;;;;;;;;;5012153;28;20170;-49
2021/12/04 14:37:22;;;;;;;6.07;3.93;;;;;;;;;;5012380;28;20396;-49
2021/12/04 14:39:49;;;;;;;5.13;4.57;;;;;;;;;;5012098;28;20408;-49
2021/12/04 14:42:15;;;;;;;9.07;4.30;;;;;;;;;;5012033;28;20196;-50
2021/12/04 14:44:42;;;;;;;5.57;4.00;;;;;;;;;;5011974;28;20418;-51
2021/12/04 14:47:10;;;;;;;5.60;4.37;;;;;;;;;;5012143;28;20458;-51
2021/12/04 14:49:39;;;;;;;4.60;3.73;;;;;;;;;;5011959;28;20979;-49
2021/12/04 14:52:05;;;;;;;4.30;3.90;;;;;;;;;;5011883;28;20428;-50
2021/12/04 14:54:32;;;;;;;4.00;3.70;;;;;;;;;;5012065;28;20403;-50
2021/12/04 14:56:59;;;;;;;4.40;4.00;;;;;;;;;;5012086;28;20403;-49
2021/12/04 14:59:27;;;;;;;7.40;4.47;;;;;;;;;;5011883;28;20506;-50
2021/12/04 15:01:53;;;;;;;5.30;4.80;;;;;;;;;;5011701;28;20420;-51
2021/12/04 15:04:19;;;;;;;4.93;4.53;;;;;;;;;;5011961;28;20416;-50
2021/12/04 15:06:46;;;;;;;4.67;4.17;;;;;;;;;;5012208;28;20403;-49
2021/12/04 15:09:14;;;;;;;7.10;4.80;;;;;;;;;;5011912;28;20403;-49
2021/12/04 15:11:48;;;;;;;5.60;4.87;;;;;;;;;;5011523;28;20459;-50
2021/12/04 15:14:19;;;;;;;6.35;5.22;;;;;;;;;;5011925;28;20407;-50
2021/12/04 15:16:49;;;;;;;6.37;5.57;;;;;;;;;;5011920;28;20195;-49
2021/12/04 15:19:21;;;;;;;5.38;4.90;;;;;;;;;;5012231;28;20772;-49
2021/12/04 15:21:51;;;;;;;6.25;5.30;;;;;;;;;;5011470;28;20185;-49
2021/12/04 15:24:23;;;;;;;5.82;5.28;;;;;;;;;;5011681;28;20183;-51
2021/12/04 15:26:56;;;;;;;5.97;5.47;;;;;;;;;;5011859;28;20600;-49
2021/12/04 15:29:23;;;;;;;6.30;5.43;;;;;;;;;;5012125;28;20174;-48
2021/12/04 15:31:50;;;;;;;6.40;5.70;;;;;;;;;;5011272;28;20220;-51
2021/12/04 15:34:17;;;;;;;8.32;6.15;;;;;;;;;;5011696;28;20492;-50
2021/12/04 15:36:47;;;;;;;7.57;6.75;;;;;;;;;;5011682;28;20165;-48
2021/12/04 15:39:19;;;;;;;10.25;7.35;;;;;;;;;;5011668;28;20219;-49
2021/12/04 15:53:12;;;;;;;7.63;6.10;;;;;;;;;;5015317;28;20179;-49
2021/12/04 15:55:39;;;;;;;6.20;5.55;;;;;;;;;;5015167;28;20165;-49
2021/12/04 15:58:10;;;;;;;7.85;5.75;;;;;;;;;;5015083;28;20169;-49
2021/12/04 16:00:39;;;;;;;6.20;5.60;;;;;;;;;;5014698;28;20211;-49
2021/12/04 16:03:10;;;;;;;6.95;5.60;;;;;;;;;;5014967;28;20648;-49
2021/12/04 16:05:38;;;;;;;4.38;4.00;;;;;;;;;;5014824;28;20267;-49
2021/12/04 16:08:24;;;;;;;4.47;4.07;;;;;;;;;;5014823;28;20166;-49
2021/12/04 16:10:51;;;;;;;3.90;3.60;;;;;;;;;;5014489;28;20675;-49
2021/12/04 16:13:25;;;;;;;3.75;3.47;;;;;;;;;;5015268;28;20895;-49
2021/12/04 16:15:51;;;;;;;3.17;2.97;;;;;;;;;;5014992;28;20172;-48
2021/12/04 16:18:19;;;;;;;4.63;3.55;;;;;;;;;;5014798;28;20255;-49
2021/12/04 16:20:46;;;;;;;4.50;4.10;;;;;;;;;;5014345;28;20190;-49
2021/12/04 16:23:14;;;;;;;5.20;3.40;;;;;;;;;;5014635;28;20172;-48
2021/12/04 16:25:40;;;;;;;5.55;2.80;;;;;;;;;;5014725;28;20172;-49
2021/12/04 16:30:52;;;;;;;5.15;3.70;;;;;;;;;;5010798;28;20216;-48
2021/12/04 16:33:39;;;;;;;3.45;3.15;;;;;;;;;;5014516;28;20170;-49
2021/12/04 16:36:09;;;;;;;4.38;3.97;;;;;;;;;;5014412;28;20596;-49
2021/12/04 16:38:36;;;;;;;4.25;3.85;;;;;;;;;;5015421;28;20195;-50
2021/12/04 16:41:07;;;;;;;5.30;3.65;;;;;;;;;;5014919;28;20263;-50
2021/12/04 16:43:38;;;;;;;4.05;3.72;;;;;;;;;;5014770;28;20215;-50
2021/12/04 16:46:11;;;;;;;3.95;3.65;;;;;;;;;;5014773;28;20226;-50
2021/12/04 16:48:42;;;;;;;4.15;3.65;;;;;;;;;;5014734;28;20644;-51
2021/12/04 16:56:32;;;;;;;3.60;3.30;;;;;;;;;;5013688;28;20222;-49
2021/12/04 16:59:06;;;;;;;5.50;3.90;;;;;;;;;;5014361;28;20655;-50
2021/12/04 17:01:32;;;;;;;6.15;3.03;;;;;;;;;;5013968;28;20223;-50
2021/12/04 17:03:58;;;;;;;4.32;3.40;;;;;;;;;;4997411;28;20176;-49
2021/12/04 17:06:24;;;;;;;7.18;4.05;;;;;;;;;;5015941;28;20191;-49
2021/12/04 17:08:50;;;;;;;4.05;3.75;;;;;;;;;;5009973;28;20549;-48
2021/12/04 17:11:16;;;;;;;3.40;3.17;;;;;;;;;;5031641;28;20203;-48
2021/12/04 17:13:43;;;;;;;3.40;3.10;;;;;;;;;;5032804;28;20187;-48
2021/12/04 17:16:13;;;;;;;5.25;4.60;;;;;;;;;;5009515;28;20219;-48
2021/12/04 17:18:40;;;;;;;7.90;4.88;;;;;;;;;;5015314;28;20167;-49
2021/12/04 17:21:06;;;;;;;9.32;4.22;;;;;;;;;;5027675;28;20906;-52
2021/12/04 17:23:32;;;;;;;4.53;3.85;;;;;;;;;;4984789;28;20229;-48
2021/12/04 17:25:59;;;;;;;4.45;3.90;;;;;;;;;;4997635;28;20188;-50
2021/12/04 17:28:32;;;;;;;6.78;4.95;;;;;;;;;;5015091;28;20682;-48
2021/12/04 17:30:58;;;;;;;6.82;4.88;;;;;;;;;;5014622;28;20699;-48
2021/12/04 17:33:24;;;;;;;6.65;5.18;;;;;;;;;;4996772;28;20168;-49
2021/12/04 17:35:51;;;;;;;8.13;6.25;;;;;;;;;;5017831;28;20174;-48
2021/12/04 17:38:17;;;;;;;8.32;6.00;;;;;;;;;;5010670;28;20632;-51
2021/12/04 17:40:44;;;;;;;9.52;6.45;;;;;;;;;;4996664;28;20208;-50
2021/12/04 17:43:10;;;;;;;7.15;6.10;;;;;;;;;;4980448;28;20196;-50
2021/12/04 17:45:37;;;;;;;14.23;7.88;;;;;;;;;;5013769;28;20180;-50
2021/12/04 17:48:05;;;;;;;13.73;9.77;;;;;;;;;;5013636;28;20172;-50
2021/12/04 17:50:36;;;;;;;14.45;8.75;;;;;;;;;;5013402;28;20232;-49
2021/12/04 17:53:02;;;;;;;11.88;9.40;;;;;;;;;;4996734;28;20255;-50
2021/12/04 17:55:29;;;;;;;12.85;9.40;;;;;;;;;;5016467;28;20202;-48
2021/12/04 17:57:55;;;;;;;12.20;9.65;;;;;;;;;;4997706;28;20172;-48
2021/12/04 18:00:24;;;;;;;11.45;8.80;;;;;;;;;;4997814;28;20196;-48
2021/12/04 18:02:53;;;;;;;8.85;7.68;;;;;;;;;;5015246;28;20168;-48
2021/12/04 18:05:23;;;;;;;11.15;8.43;;;;;;;;;;5015237;28;20187;-48
2021/12/04 18:07:50;;;;;;;8.15;6.43;;;;;;;;;;5014253;28;20192;-48
2021/12/04 18:10:17;;;;;;;7.47;6.35;;;;;;;;;;4996893;28;20204;-48
2021/12/04 18:12:49;;;;;;;8.52;7.18;;;;;;;;;;4997454;28;20174;-48
2021/12/04 18:15:21;;;;;;;8.30;5.93;;;;;;;;;;4996493;28;20255;-48
2021/12/04 18:17:47;;;;;;;6.63;5.93;;;;;;;;;;5015238;28;20191;-48
2021/12/04 18:20:14;;;;;;;9.95;6.00;;;;;;;;;;4997159;28;20611;-48